createdAt,value
2018-07-06T00:02:20.828Z,17.10
2018-07-06T00:05:00.037Z,17.10
2018-07-06T00:07:39.329Z,17.10
2018-07-06T00:10:18.484Z,17.10
2018-07-06T00:12:57.653Z,17.10
2018-07-06T00:15:36.793Z,17.10
2018-07-06T00:18:16.209Z,17.10
2018-07-06T00:20:55.397Z,17.10
2018-07-06T00:23:34.773Z,17.10
2018-07-06T00:26:13.942Z,17.20
2018-07-06T00:28:53.144Z,17.10
2018-07-06T00:31:32.372Z,17.00
2018-07-06T00:34:11.714Z,17.00
2018-07-06T00:36:50.956Z,17.00
2018-07-06T00:39:30.293Z,17.00
2018-07-06T00:42:09.612Z,17.00
2018-07-06T00:44:48.753Z,17.00
2018-07-06T00:47:27.932Z,17.00
2018-07-06T00:50:07.132Z,16.90
2018-07-06T00:52:46.373Z,16.80
2018-07-06T00:55:25.540Z,16.80
2018-07-06T00:58:04.626Z,16.90
2018-07-06T01:00:43.888Z,16.80
2018-07-06T01:03:23.184Z,16.80
2018-07-06T01:06:02.354Z,16.70
2018-07-06T01:08:41.466Z,16.80
2018-07-06T01:11:20.756Z,16.90
2018-07-06T01:14:00.033Z,16.90
2018-07-06T01:16:39.258Z,16.90
2018-07-06T01:19:18.689Z,17.00
2018-07-06T01:24:31.560Z,16.90
2018-07-06T01:27:10.709Z,16.90
2018-07-06T01:29:49.884Z,16.90
2018-07-06T01:32:29.309Z,16.90
2018-07-06T01:35:08.500Z,16.80
2018-07-06T01:37:47.896Z,16.80
2018-07-06T01:40:26.988Z,16.80
2018-07-06T01:43:06.212Z,16.80
2018-07-06T01:45:45.520Z,16.80
2018-07-06T01:48:24.808Z,16.90
2018-07-06T01:51:04.077Z,16.90
2018-07-06T01:53:43.299Z,16.90
2018-07-06T01:56:22.680Z,16.80
2018-07-06T01:59:01.885Z,16.90
2018-07-06T02:01:41.132Z,16.90
2018-07-06T02:04:20.381Z,17.00
2018-07-06T02:06:59.648Z,16.90
2018-07-06T02:09:38.932Z,16.90
2018-07-06T02:12:18.232Z,16.90
2018-07-06T02:14:57.401Z,16.90
2018-07-06T02:17:36.789Z,16.90
2018-07-06T02:20:15.943Z,17.00
2018-07-06T02:22:55.133Z,16.90
2018-07-06T02:25:34.385Z,16.90
2018-07-06T02:28:13.553Z,16.80
2018-07-06T02:30:52.715Z,16.80
2018-07-06T02:33:32.108Z,16.80
2018-07-06T02:36:11.361Z,16.80
2018-07-06T02:38:50.694Z,16.80
2018-07-06T02:41:30.025Z,16.80
2018-07-06T02:44:09.304Z,16.70
2018-07-06T02:46:48.532Z,16.80
2018-07-06T02:49:27.643Z,16.80
2018-07-06T02:52:06.888Z,16.80
2018-07-06T02:54:46.362Z,16.80
2018-07-06T02:57:25.790Z,16.80
2018-07-06T03:00:05.094Z,16.80
2018-07-06T03:02:44.374Z,16.90
2018-07-06T03:05:23.584Z,16.90
2018-07-06T03:08:02.861Z,17.00
2018-07-06T03:10:42.041Z,17.00
2018-07-06T03:13:21.346Z,17.00
2018-07-06T03:16:00.761Z,17.10
2018-07-06T03:18:40.023Z,17.10
2018-07-06T03:21:19.424Z,17.00
2018-07-06T03:23:58.625Z,16.90
2018-07-06T03:26:37.828Z,16.90
2018-07-06T03:29:17.056Z,16.80
2018-07-06T03:31:56.237Z,16.80
2018-07-06T03:34:35.380Z,16.80
2018-07-06T03:37:14.764Z,16.80
2018-07-06T03:39:53.966Z,16.70
2018-07-06T03:42:33.352Z,16.70
2018-07-06T03:45:12.545Z,16.60
2018-07-06T03:47:51.837Z,16.70
2018-07-06T03:50:31.026Z,16.60
2018-07-06T03:53:10.308Z,16.60
2018-07-06T03:55:49.438Z,16.60
2018-07-06T03:58:28.774Z,16.60
2018-07-06T04:01:08.080Z,16.60
2018-07-06T04:03:47.320Z,16.60
2018-07-06T04:06:26.529Z,16.50
2018-07-06T04:09:05.685Z,16.50
2018-07-06T04:11:44.924Z,16.50
2018-07-06T04:14:24.148Z,16.40
2018-07-06T04:17:03.412Z,16.30
2018-07-06T04:19:42.708Z,16.30
2018-07-06T04:22:21.941Z,16.40
2018-07-06T04:25:01.265Z,16.40
2018-07-06T04:27:40.473Z,16.30
2018-07-06T04:30:19.828Z,16.30
2018-07-06T04:32:59.190Z,16.30
2018-07-06T04:35:38.633Z,16.30
2018-07-06T04:38:17.820Z,16.30
2018-07-06T04:40:57.213Z,16.20
2018-07-06T04:43:36.468Z,16.10
2018-07-06T04:46:15.792Z,16.20
2018-07-06T04:48:55.181Z,16.20
2018-07-06T04:51:34.500Z,16.20
2018-07-06T04:54:13.688Z,16.20
2018-07-06T04:56:53.025Z,16.20
2018-07-06T04:59:32.342Z,16.20
2018-07-06T05:02:11.513Z,16.20
2018-07-06T05:04:50.732Z,16.20
2018-07-06T05:07:29.961Z,16.20
2018-07-06T05:10:09.471Z,16.10
2018-07-06T05:12:48.877Z,16.30
2018-07-06T05:15:28.042Z,16.30
2018-07-06T05:18:07.277Z,16.30
2018-07-06T05:20:46.681Z,16.30
2018-07-06T05:23:25.860Z,16.30
2018-07-06T05:26:05.153Z,16.30
2018-07-06T05:28:44.352Z,16.40
2018-07-06T05:31:23.484Z,16.40
2018-07-06T05:34:02.705Z,16.50
2018-07-06T05:36:41.944Z,16.50
2018-07-06T05:39:21.241Z,16.50
2018-07-06T05:42:00.605Z,16.50
2018-07-06T05:44:39.986Z,16.60
2018-07-06T05:47:19.133Z,16.60
2018-07-06T05:49:58.452Z,16.70
2018-07-06T05:52:37.693Z,16.70
2018-07-06T05:55:16.995Z,16.70
2018-07-06T05:57:56.235Z,16.70
2018-07-06T06:00:35.512Z,16.60
2018-07-06T06:03:14.736Z,16.60
2018-07-06T06:05:54.125Z,16.50
2018-07-06T06:08:20.964Z,16.40
2018-07-06T06:10:49.134Z,16.40
2018-07-06T06:13:17.369Z,16.50
2018-07-06T06:15:45.541Z,16.30
2018-07-06T06:18:13.744Z,16.20
2018-07-06T06:20:41.948Z,16.10
2018-07-06T06:23:10.156Z,16.10
2018-07-06T06:25:38.382Z,16.10
2018-07-06T06:28:06.593Z,16.10
2018-07-06T06:30:34.856Z,16.10
2018-07-06T06:33:03.108Z,16.20
2018-07-06T06:35:31.569Z,16.20
2018-07-06T06:37:59.845Z,16.20
2018-07-06T06:40:28.239Z,16.30
2018-07-06T06:42:56.504Z,16.30
2018-07-06T06:45:24.697Z,16.30
2018-07-06T06:47:53.171Z,16.40
2018-07-06T06:50:21.372Z,16.40
2018-07-06T06:52:49.716Z,16.50
2018-07-06T06:55:18.005Z,16.50
2018-07-06T06:57:46.301Z,16.50
2018-07-06T07:00:14.611Z,16.50
2018-07-06T07:02:42.948Z,16.50
2018-07-06T07:05:11.220Z,16.40
2018-07-06T07:07:39.701Z,16.50
2018-07-06T07:10:07.864Z,16.40
2018-07-06T07:12:36.243Z,16.40
2018-07-06T07:15:04.464Z,16.40
2018-07-06T07:17:32.680Z,16.50
2018-07-06T07:20:00.940Z,16.50
2018-07-06T07:22:29.193Z,16.30
2018-07-06T07:24:57.748Z,16.30
2018-07-06T07:27:25.999Z,16.30
2018-07-06T07:29:54.347Z,16.40
2018-07-06T07:32:22.645Z,16.50
2018-07-06T07:34:51.005Z,16.50
2018-07-06T07:37:19.488Z,16.40
2018-07-06T07:39:48.065Z,16.50
2018-07-06T07:42:16.293Z,16.50
2018-07-06T07:44:44.603Z,16.50
2018-07-06T07:47:12.920Z,16.50
2018-07-06T07:49:41.113Z,16.50
2018-07-06T07:52:20.502Z,16.50
2018-07-06T07:54:57.537Z,16.50
2018-07-06T07:57:25.888Z,16.50
2018-07-06T07:59:55.380Z,16.40
2018-07-06T08:02:23.765Z,16.50
2018-07-06T08:04:53.006Z,16.60
2018-07-06T08:07:21.361Z,16.70
2018-07-06T08:09:49.699Z,16.80
2018-07-06T08:12:17.921Z,16.80
2018-07-06T08:14:46.231Z,16.80
2018-07-06T08:17:14.449Z,16.80
2018-07-06T08:19:42.632Z,16.80
2018-07-06T08:22:10.852Z,16.80
2018-07-06T08:24:39.048Z,16.80
2018-07-06T08:27:07.276Z,16.80
2018-07-06T08:29:35.497Z,16.90
2018-07-06T08:32:03.690Z,16.90
2018-07-06T08:34:43.049Z,16.90
2018-07-06T08:37:34.054Z,16.90
2018-07-06T08:40:02.402Z,16.90
2018-07-06T08:42:31.889Z,17.00
2018-07-06T08:45:00.688Z,17.00
2018-07-06T08:47:29.027Z,17.00
2018-07-06T08:49:57.878Z,17.00
2018-07-06T08:52:26.401Z,17.00
2018-07-06T08:54:54.636Z,17.00
2018-07-06T08:57:23.960Z,17.00
2018-07-06T08:59:52.800Z,17.00
2018-07-06T09:02:21.472Z,17.00
2018-07-06T09:04:50.407Z,17.00
2018-07-06T09:07:19.056Z,17.00
2018-07-06T09:09:47.753Z,17.00
2018-07-06T09:12:15.973Z,17.10
2018-07-06T09:14:44.204Z,17.20
2018-07-06T09:17:14.496Z,17.20
2018-07-06T09:19:43.304Z,17.20
2018-07-06T09:22:11.978Z,17.10
2018-07-06T09:24:40.489Z,17.10
2018-07-06T09:27:08.773Z,17.10
2018-07-06T09:29:36.966Z,17.10
2018-07-06T09:32:05.421Z,17.00
2018-07-06T09:34:33.737Z,17.00
2018-07-06T09:37:02.042Z,17.10
2018-07-06T09:39:30.403Z,17.10
2018-07-06T09:41:58.655Z,17.10
2018-07-06T09:44:26.854Z,17.20
2018-07-06T09:46:55.197Z,17.20
2018-07-06T09:49:23.558Z,17.30
2018-07-06T09:51:51.920Z,17.50
2018-07-06T09:54:20.300Z,17.50
2018-07-06T09:56:48.533Z,17.40
2018-07-06T09:59:16.773Z,17.50
2018-07-06T10:01:44.954Z,17.50
2018-07-06T10:04:13.180Z,17.60
2018-07-06T10:06:41.416Z,17.60
2018-07-06T10:09:10.160Z,17.70
2018-07-06T10:11:38.429Z,17.70
2018-07-06T10:14:06.720Z,17.70
2018-07-06T10:16:34.935Z,17.90
2018-07-06T10:19:03.181Z,18.10
2018-07-06T10:21:31.349Z,18.30
2018-07-06T10:23:59.564Z,18.30
2018-07-06T10:26:27.765Z,18.50
2018-07-06T10:29:09.401Z,18.60
2018-07-06T10:31:54.485Z,18.60
2018-07-06T10:34:22.664Z,18.50
2018-07-06T10:36:50.887Z,18.40
2018-07-06T10:39:19.304Z,18.20
2018-07-06T10:41:48.014Z,18.10
2018-07-06T10:44:16.265Z,18.00
2018-07-06T10:46:44.722Z,17.90
2018-07-06T10:49:13.089Z,17.80
2018-07-06T10:51:41.377Z,17.60
2018-07-06T10:54:09.688Z,17.30
2018-07-06T10:56:38.044Z,17.10
2018-07-06T10:59:07.527Z,16.80
2018-07-06T11:01:35.813Z,16.70
2018-07-06T11:04:04.049Z,16.80
2018-07-06T11:06:32.240Z,16.70
2018-07-06T11:09:00.470Z,16.70
2018-07-06T11:11:28.715Z,16.70
2018-07-06T11:13:56.944Z,16.80
2018-07-06T11:16:25.252Z,16.80
2018-07-06T11:18:53.482Z,16.80
2018-07-06T11:21:21.769Z,16.80
2018-07-06T11:23:49.944Z,16.80
2018-07-06T11:26:18.156Z,16.80
2018-07-06T11:28:46.413Z,16.80
2018-07-06T11:31:14.728Z,16.80
2018-07-06T11:33:42.949Z,16.80
2018-07-06T11:36:11.146Z,16.90
2018-07-06T11:38:39.453Z,17.00
2018-07-06T11:41:07.691Z,17.00
2018-07-06T11:43:35.929Z,17.10
2018-07-06T11:46:04.168Z,17.10
2018-07-06T11:48:32.326Z,17.20
2018-07-06T11:51:00.557Z,17.20
2018-07-06T11:53:28.775Z,17.30
2018-07-06T11:55:57.091Z,17.30
2018-07-06T11:58:25.596Z,17.20
2018-07-06T12:00:53.816Z,17.30
2018-07-06T12:03:22.020Z,17.30
2018-07-06T12:05:50.234Z,17.40
2018-07-06T12:08:18.461Z,17.40
2018-07-06T12:10:46.682Z,17.40
2018-07-06T12:13:14.856Z,17.40
2018-07-06T12:15:43.058Z,17.50
2018-07-06T12:18:11.338Z,17.50
2018-07-06T12:20:39.848Z,17.50
2018-07-06T12:23:08.512Z,17.50
2018-07-06T12:25:36.996Z,17.60
2018-07-06T12:28:05.740Z,17.60
2018-07-06T12:33:02.097Z,17.70
2018-07-06T12:35:30.355Z,17.80
2018-07-06T12:37:58.752Z,17.80
2018-07-06T12:40:27.192Z,17.90
2018-07-06T12:42:55.633Z,17.90
2018-07-06T12:45:23.990Z,17.90
2018-07-06T12:47:52.336Z,17.90
2018-07-06T12:50:20.564Z,17.90
2018-07-06T12:52:48.909Z,17.90
2018-07-06T12:55:17.593Z,17.90
2018-07-06T12:57:45.862Z,17.90
2018-07-06T13:00:14.052Z,18.00
2018-07-06T13:02:42.411Z,18.00
2018-07-06T13:05:10.629Z,17.90
2018-07-06T13:07:38.924Z,17.90
2018-07-06T13:10:07.433Z,18.00
2018-07-06T13:12:36.330Z,17.90
2018-07-06T13:15:04.690Z,18.00
2018-07-06T13:17:32.916Z,18.10
2018-07-06T13:20:01.161Z,18.10
2018-07-06T13:22:29.362Z,18.20
2018-07-06T13:24:57.549Z,18.20
2018-07-06T13:27:25.784Z,18.20
2018-07-06T13:29:54.336Z,18.20
2018-07-06T13:32:22.619Z,18.20
2018-07-06T13:34:50.834Z,18.10
2018-07-06T13:37:19.636Z,18.10
2018-07-06T13:39:47.870Z,18.10
2018-07-06T13:42:16.066Z,17.90
2018-07-06T13:44:44.863Z,17.80
2018-07-06T13:47:13.061Z,17.70
2018-07-06T13:49:41.280Z,17.50
2018-07-06T13:52:09.528Z,17.40
2018-07-06T13:54:37.780Z,17.30
2018-07-06T13:57:06.023Z,17.30
2018-07-06T13:59:34.182Z,17.10
2018-07-06T14:02:02.416Z,17.00
2018-07-06T14:04:30.641Z,16.90
2018-07-06T14:06:58.861Z,17.00
2018-07-06T14:09:27.061Z,17.00
2018-07-06T14:11:55.827Z,17.00
2018-07-06T14:14:24.595Z,17.10
2018-07-06T14:16:53.286Z,17.10
2018-07-06T14:19:22.070Z,17.10
2018-07-06T14:21:50.865Z,17.30
2018-07-06T14:24:19.534Z,17.40
2018-07-06T14:26:48.428Z,17.60
2018-07-06T14:29:17.215Z,17.70
2018-07-06T14:31:45.900Z,17.80
2018-07-06T14:34:14.796Z,17.90
2018-07-06T14:36:43.904Z,18.00
2018-07-06T14:39:13.901Z,18.10
2018-07-06T14:41:42.717Z,18.20
2018-07-06T14:44:11.279Z,18.30
2018-07-06T14:46:39.942Z,18.40
2018-07-06T14:49:09.052Z,18.70
2018-07-06T14:51:37.936Z,18.80
2018-07-06T14:54:06.837Z,19.00
2018-07-06T14:56:35.727Z,19.00
2018-07-06T14:59:04.612Z,19.00
2018-07-06T15:01:33.501Z,18.90
2018-07-06T15:04:02.885Z,18.80
2018-07-06T15:06:31.758Z,18.80
2018-07-06T15:09:00.653Z,18.70
2018-07-06T15:11:29.471Z,18.80
2018-07-06T15:13:58.040Z,18.90
2018-07-06T15:16:26.458Z,19.10
2018-07-06T15:18:55.261Z,19.40
2018-07-06T15:21:24.029Z,19.70
2018-07-06T15:23:52.893Z,20.00
2018-07-06T15:26:21.582Z,20.00
2018-07-06T15:28:50.667Z,20.30
2018-07-06T15:31:19.618Z,20.50
2018-07-06T15:33:48.858Z,20.70
2018-07-06T15:36:17.764Z,20.90
2018-07-06T15:38:46.842Z,20.90
2018-07-06T15:41:16.813Z,21.00
2018-07-06T15:43:46.671Z,21.10
2018-07-06T15:46:15.572Z,21.00
2018-07-06T15:51:12.935Z,20.90
2018-07-06T15:53:41.812Z,20.80
2018-07-06T15:56:10.945Z,20.50
2018-07-06T15:58:39.933Z,20.40
2018-07-06T16:01:08.830Z,20.30
2018-07-06T16:03:37.690Z,20.30
2018-07-06T16:06:06.907Z,20.20
2018-07-06T16:08:35.153Z,20.30
2018-07-06T16:11:03.398Z,20.10
2018-07-06T16:13:31.564Z,20.10
2018-07-06T16:15:59.789Z,20.00
2018-07-06T16:18:27.986Z,20.00
2018-07-06T16:20:56.206Z,20.10
2018-07-06T16:23:24.424Z,20.00
2018-07-06T16:25:52.601Z,20.10
2018-07-06T16:28:20.809Z,20.10
2018-07-06T16:30:48.997Z,20.20
2018-07-06T16:33:17.253Z,20.10
2018-07-06T16:35:45.441Z,20.00
2018-07-06T16:38:14.045Z,20.00
2018-07-06T16:40:42.260Z,20.00
2018-07-06T16:43:10.412Z,19.90
2018-07-06T16:45:38.640Z,19.90
2018-07-06T16:48:06.852Z,19.90
2018-07-06T16:50:35.037Z,19.90
2018-07-06T16:53:03.763Z,19.90
2018-07-06T16:55:32.061Z,19.80
2018-07-06T16:58:00.288Z,19.80
2018-07-06T17:00:28.549Z,19.70
2018-07-06T17:02:56.712Z,19.60
2018-07-06T17:05:24.937Z,19.60
2018-07-06T17:07:53.288Z,19.60
2018-07-06T17:10:21.816Z,19.50
2018-07-06T17:12:50.023Z,19.40
2018-07-06T17:15:18.201Z,19.40
2018-07-06T17:17:46.677Z,19.40
2018-07-06T17:20:14.909Z,19.30
2018-07-06T17:22:43.229Z,19.20
2018-07-06T17:25:11.435Z,19.20
2018-07-06T17:27:39.613Z,19.20
2018-07-06T17:30:07.940Z,19.10
2018-07-06T17:32:36.129Z,19.10
2018-07-06T17:35:04.386Z,19.00
2018-07-06T17:37:32.653Z,18.90
2018-07-06T17:40:00.812Z,18.90
2018-07-06T17:42:29.041Z,18.80
2018-07-06T17:44:57.240Z,18.70
2018-07-06T17:47:25.474Z,18.60
2018-07-06T17:49:53.673Z,18.60
2018-07-06T17:52:21.878Z,18.50
2018-07-06T17:54:50.213Z,18.40
2018-07-06T17:57:18.389Z,18.40
2018-07-06T17:59:46.635Z,18.20
2018-07-06T18:02:14.868Z,18.20
2018-07-06T18:04:43.052Z,18.10
2018-07-06T18:07:11.402Z,18.00
2018-07-06T18:09:39.685Z,17.90
2018-07-06T18:14:35.952Z,17.90
2018-07-06T18:17:04.137Z,17.80
2018-07-06T18:19:32.485Z,17.80
2018-07-06T18:22:00.744Z,17.70
2018-07-06T18:24:28.992Z,17.70
2018-07-06T18:26:57.189Z,17.70
2018-07-06T18:29:25.446Z,17.70
2018-07-06T18:31:53.637Z,17.70
2018-07-06T18:34:21.884Z,17.70
2018-07-06T18:36:50.090Z,17.70
2018-07-06T18:39:18.317Z,17.70
2018-07-06T18:41:46.517Z,17.70
2018-07-06T18:44:14.750Z,17.70
2018-07-06T18:46:42.968Z,17.70
2018-07-06T18:49:11.706Z,17.70
2018-07-06T18:51:40.830Z,17.60
2018-07-06T18:54:09.005Z,17.60
2018-07-06T18:56:37.361Z,17.60
2018-07-06T18:59:05.989Z,17.50
2018-07-06T19:01:34.239Z,17.50
2018-07-06T19:04:02.464Z,17.40
2018-07-06T19:06:30.652Z,17.40
2018-07-06T19:08:58.869Z,17.30
2018-07-06T19:11:27.155Z,17.30
2018-07-06T19:13:55.376Z,17.20
2018-07-06T19:16:23.577Z,17.20
2018-07-06T19:18:51.757Z,17.20
2018-07-06T19:21:20.488Z,17.10
2018-07-06T19:23:48.685Z,17.10
2018-07-06T19:26:16.913Z,17.10
2018-07-06T19:28:45.133Z,17.10
2018-07-06T19:31:13.441Z,17.10
2018-07-06T19:33:41.672Z,17.00
2018-07-06T19:36:09.897Z,17.00
2018-07-06T19:38:38.237Z,16.90
2018-07-06T19:41:06.462Z,16.90
2018-07-06T19:43:34.717Z,16.90
2018-07-06T19:46:02.935Z,16.80
2018-07-06T19:48:31.206Z,16.80
2018-07-06T19:50:59.477Z,16.60
2018-07-06T19:53:28.146Z,16.60
2018-07-06T19:55:56.395Z,16.60
2018-07-06T19:58:25.237Z,16.60
2018-07-06T20:03:21.890Z,16.40
2018-07-06T20:05:51.121Z,16.40
2018-07-06T20:08:19.402Z,16.40
2018-07-06T20:10:47.756Z,16.40
2018-07-06T20:13:16.183Z,16.30
2018-07-06T20:15:44.465Z,16.30
2018-07-06T20:18:12.703Z,16.30
2018-07-06T20:20:40.952Z,16.30
2018-07-06T20:23:10.029Z,16.30
2018-07-06T20:25:38.272Z,16.30
2018-07-06T20:28:06.520Z,16.30
2018-07-06T20:30:34.685Z,16.30
2018-07-06T20:33:02.961Z,16.30
2018-07-06T20:35:31.146Z,16.30
2018-07-06T20:37:59.412Z,16.40
2018-07-06T20:40:27.583Z,16.40
2018-07-06T20:42:55.861Z,16.50
2018-07-06T20:45:24.068Z,16.50
2018-07-06T20:47:52.361Z,16.50
2018-07-06T20:50:20.593Z,16.40
2018-07-06T20:52:48.837Z,16.40
2018-07-06T20:55:17.061Z,16.50
2018-07-06T20:57:45.285Z,16.40
2018-07-06T21:00:13.678Z,16.30
2018-07-06T21:02:42.009Z,16.30
2018-07-06T21:05:10.181Z,16.40
2018-07-06T21:07:38.406Z,16.40
2018-07-06T21:10:06.579Z,16.40
2018-07-06T21:12:34.788Z,16.50
2018-07-06T21:15:03.118Z,16.60
2018-07-06T21:17:31.304Z,16.60
2018-07-06T21:19:59.540Z,16.70
2018-07-06T21:22:27.829Z,16.70
2018-07-06T21:24:56.056Z,16.70
2018-07-06T21:27:24.281Z,16.70
2018-07-06T21:29:52.501Z,16.80
2018-07-06T21:32:20.703Z,16.80
2018-07-06T21:34:48.928Z,16.90
2018-07-06T21:37:17.128Z,16.90
2018-07-06T21:39:45.353Z,16.90
2018-07-06T21:42:13.557Z,16.90
2018-07-06T21:44:41.718Z,16.80
2018-07-06T21:47:09.954Z,16.80
2018-07-06T21:52:07.358Z,16.70
2018-07-06T21:54:35.628Z,16.70
2018-07-06T21:57:03.816Z,16.70
2018-07-06T21:59:32.018Z,16.70
2018-07-06T22:02:00.301Z,16.70
2018-07-06T22:04:28.541Z,16.80
2018-07-06T22:06:56.713Z,16.70
2018-07-06T22:09:24.953Z,16.80
2018-07-06T22:11:53.330Z,16.70
2018-07-06T22:14:21.616Z,16.70
2018-07-06T22:16:49.828Z,16.60
2018-07-06T22:19:18.025Z,16.50
2018-07-06T22:21:46.299Z,16.30
2018-07-06T22:24:14.629Z,16.30
2018-07-06T22:26:42.835Z,16.30
2018-07-06T22:29:11.160Z,16.20
2018-07-06T22:31:39.329Z,16.30
2018-07-06T22:34:07.542Z,16.30
2018-07-06T22:36:36.000Z,16.30
2018-07-06T22:39:04.796Z,16.20
2018-07-06T22:41:33.021Z,16.20
2018-07-06T22:44:01.261Z,16.20
2018-07-06T22:46:29.481Z,16.10
2018-07-06T22:48:57.652Z,16.10
2018-07-06T22:51:26.025Z,16.10
2018-07-06T22:53:54.295Z,16.00
2018-07-06T22:56:22.516Z,16.00
2018-07-06T22:58:50.685Z,16.00
2018-07-06T23:01:18.924Z,16.00
2018-07-06T23:03:47.130Z,16.00
2018-07-06T23:06:15.382Z,16.00
2018-07-06T23:08:43.565Z,16.00
2018-07-06T23:11:11.888Z,16.00
2018-07-06T23:13:40.134Z,15.90
2018-07-06T23:16:08.398Z,15.90
2018-07-06T23:18:36.616Z,15.90
2018-07-06T23:21:04.829Z,15.90
2018-07-06T23:23:33.061Z,15.80
2018-07-06T23:26:01.273Z,15.80
2018-07-06T23:28:29.440Z,15.80
2018-07-06T23:30:57.632Z,15.80
2018-07-06T23:33:25.885Z,15.80
2018-07-06T23:35:54.081Z,15.70
2018-07-06T23:38:22.333Z,15.70
2018-07-06T23:40:50.497Z,15.70
2018-07-06T23:43:18.720Z,15.70
2018-07-06T23:45:46.872Z,15.80
2018-07-06T23:48:15.072Z,15.70
2018-07-06T23:50:43.232Z,15.70
2018-07-06T23:53:11.464Z,15.70
2018-07-06T23:55:39.661Z,15.70
2018-07-06T23:58:07.887Z,15.60
